Hoagland, IN (46745)

7:58 AM EDT on June 03, 2015 (GMT -0400)
Marion Center RD | | Change Station
CLOSE
Current Station
Personal Weather Station
Location: Hoagland, IN
Elevation: 817 ft
Nearby Weather Stations

Elev 817 ft 40.96 °N, 85.06 °W | Updated 4 minutes ago

Partly Cloudy
Partly Cloudy
50.9 °F
Feels Like 50.9 °F
N
0.0
Wind Variable Wind from East

Today
High -- | Low -- °F
--% Chance of Precip.
Yesterday
High -- | Low -- °F
Precip. -- in
6:09 AM 9:07 PM
Full, 99% visible
Pressure 30.11 in
Visibility 8.0 miles
Clouds Few 3600 ft
Scattered Clouds 25000 ft
Dew Point 47 °F
Humidity 86%
Rainfall 0.00 in
Snow Depth Not available.
UV 0 out of 12
Pollen 8.70 out of 12
Air Quality Not available.
Flu Activity No Activity
METAR KFWA 031054Z 06003KT 8SM FEW036 SCT250 09/08 A3011 RMK AO2 SLP196 T00890078

More Conditions Fewer Conditions

Pressure 30.11 in
Visibility 8.0 miles
Clouds Few 3600 ft
Scattered Clouds 25000 ft
Dew Point 47 °F
Humidity 86%
Rainfall 0.00 in
Snow Depth Not available.
UV 0 out of 12
Pollen 8.70 out of 12
Air Quality Not available.
Flu Activity No Activity
METAR KFWA 031054Z 06003KT 8SM FEW036 SCT250 09/08 A3011 RMK AO2 SLP196 T00890078

More Conditions Fewer Conditions

10-Day Weather Forecast

×

Almanac

Astronomy

Jun. 03, 2015 Rise Set
Actual Time
Civil Twilight
Nautical Twilight
Astronomical Twilight
Moon
Length of Visible Light
Length of Day
Tomorrow will be .
, % of the Moon is Illuminated

Today's Extremes

State Highs State Lows

Community

WunderPhotos

Upload Photos

1,826,205 photos uploaded!

WunderBlogs® & News

Nearby

Air Quality

  Air Quality AQ Index Pollutant
Not available.

Snow Depth

Station Depth Elevation

Earthquake Activity

City Distance Mag. Time & Date
Minimum magnitude displayed is 2.5.

Coastal Water Temperatures

Place Temperature

Stations

Nearby Weather Stations

Station Location Temp. Windchill Dew Point Humidity Wind Precip. Elev Updated Type